sensor_id;sensor_type;location;lat;lon;timestamp;temperature;humidity
58993;DHT22;44782;0.000;0.000;2023-06-22T00:02:11;25.60;57.80
58993;DHT22;44782;0.000;0.000;2023-06-22T00:04:27;25.60;57.10
58993;DHT22;44782;0.000;0.000;2023-06-22T00:06:43;25.60;57.10
58993;DHT22;44782;0.000;0.000;2023-06-22T00:08:58;25.50;57.00
58993;DHT22;44782;0.000;0.000;2023-06-22T00:11:14;25.60;57.10
58993;DHT22;44782;0.000;0.000;2023-06-22T00:13:30;25.60;57.10
58993;DHT22;44782;0.000;0.000;2023-06-22T00:15:45;25.60;57.10
58993;DHT22;44782;0.000;0.000;2023-06-22T00:18:01;25.60;57.10
58993;DHT22;44782;0.000;0.000;2023-06-22T00:20:17;25.60;57.10
58993;DHT22;44782;0.000;0.000;2023-06-22T00:22:36;25.50;57.00
58993;DHT22;44782;0.000;0.000;2023-06-22T00:24:55;25.50;57.00
58993;DHT22;44782;0.000;0.000;2023-06-22T00:27:11;25.50;57.00
58993;DHT22;44782;0.000;0.000;2023-06-22T00:29:26;25.50;57.00
58993;DHT22;44782;0.000;0.000;2023-06-22T00:31:42;25.60;57.00
58993;DHT22;44782;0.000;0.000;2023-06-22T00:33:58;25.50;57.00
58993;DHT22;44782;0.000;0.000;2023-06-22T00:36:13;25.60;57.00
58993;DHT22;44782;0.000;0.000;2023-06-22T00:38:31;25.60;57.00
58993;DHT22;44782;0.000;0.000;2023-06-22T00:40:47;25.50;56.90
58993;DHT22;44782;0.000;0.000;2023-06-22T00:43:03;25.50;56.90
58993;DHT22;44782;0.000;0.000;2023-06-22T00:45:20;25.50;56.90
58993;DHT22;44782;0.000;0.000;2023-06-22T00:47:37;25.50;56.90
58993;DHT22;44782;0.000;0.000;2023-06-22T00:49:53;25.50;56.80
58993;DHT22;44782;0.000;0.000;2023-06-22T00:52:09;25.50;56.80
58993;DHT22;44782;0.000;0.000;2023-06-22T00:54:30;25.50;56.80
58993;DHT22;44782;0.000;0.000;2023-06-22T00:56:45;25.50;56.90
58993;DHT22;44782;0.000;0.000;2023-06-22T00:59:01;25.50;56.80
58993;DHT22;44782;0.000;0.000;2023-06-22T01:01:19;25.50;56.80
58993;DHT22;44782;0.000;0.000;2023-06-22T01:03:38;25.50;56.80
58993;DHT22;44782;0.000;0.000;2023-06-22T01:06:01;25.50;56.70
58993;DHT22;44782;0.000;0.000;2023-06-22T01:11:13;25.50;56.70
58993;DHT22;44782;0.000;0.000;2023-06-22T01:13:56;25.50;56.80
58993;DHT22;44782;0.000;0.000;2023-06-22T01:16:26;25.50;56.50
58993;DHT22;44782;0.000;0.000;2023-06-22T01:18:43;25.40;56.70
58993;DHT22;44782;0.000;0.000;2023-06-22T01:21:00;25.40;56.70
58993;DHT22;44782;0.000;0.000;2023-06-22T01:25:45;25.50;56.60
58993;DHT22;44782;0.000;0.000;2023-06-22T01:28:06;25.40;56.70
58993;DHT22;44782;0.000;0.000;2023-06-22T01:30:31;25.40;56.70
58993;DHT22;44782;0.000;0.000;2023-06-22T01:32:50;25.50;56.60
58993;DHT22;44782;0.000;0.000;2023-06-22T01:35:09;25.40;56.60
58993;DHT22;44782;0.000;0.000;2023-06-22T01:37:26;25.50;56.60
58993;DHT22;44782;0.000;0.000;2023-06-22T01:39:42;25.40;56.60
58993;DHT22;44782;0.000;0.000;2023-06-22T01:42:00;25.50;56.60
58993;DHT22;44782;0.000;0.000;2023-06-22T01:44:16;25.50;56.60
58993;DHT22;44782;0.000;0.000;2023-06-22T01:46:33;25.40;56.50
58993;DHT22;44782;0.000;0.000;2023-06-22T01:48:50;25.50;56.50
58993;DHT22;44782;0.000;0.000;2023-06-22T01:51:08;25.40;57.10
58993;DHT22;44782;0.000;0.000;2023-06-22T01:53:25;25.40;56.40
58993;DHT22;44782;0.000;0.000;2023-06-22T01:55:40;25.40;56.50
58993;DHT22;44782;0.000;0.000;2023-06-22T01:57:56;25.50;56.50
58993;DHT22;44782;0.000;0.000;2023-06-22T02:00:15;25.40;56.40
58993;DHT22;44782;0.000;0.000;2023-06-22T02:02:39;25.40;56.40
58993;DHT22;44782;0.000;0.000;2023-06-22T02:04:59;25.40;56.30
58993;DHT22;44782;0.000;0.000;2023-06-22T02:09:45;25.40;56.40
58993;DHT22;44782;0.000;0.000;2023-06-22T02:12:02;25.50;56.40
58993;DHT22;44782;0.000;0.000;2023-06-22T02:14:19;25.40;56.40
58993;DHT22;44782;0.000;0.000;2023-06-22T02:16:38;25.40;56.40
58993;DHT22;44782;0.000;0.000;2023-06-22T02:18:54;25.40;56.30
58993;DHT22;44782;0.000;0.000;2023-06-22T02:21:09;25.40;56.40
58993;DHT22;44782;0.000;0.000;2023-06-22T02:23:25;25.40;56.40
58993;DHT22;44782;0.000;0.000;2023-06-22T02:25:41;25.40;56.40
58993;DHT22;44782;0.000;0.000;2023-06-22T02:27:59;25.40;56.30
58993;DHT22;44782;0.000;0.000;2023-06-22T02:30:15;25.40;56.30
58993;DHT22;44782;0.000;0.000;2023-06-22T02:32:31;25.40;56.30
58993;DHT22;44782;0.000;0.000;2023-06-22T02:34:49;25.40;56.40
58993;DHT22;44782;0.000;0.000;2023-06-22T02:37:05;25.40;56.30
58993;DHT22;44782;0.000;0.000;2023-06-22T02:39:22;25.30;56.20
58993;DHT22;44782;0.000;0.000;2023-06-22T02:41:38;25.40;56.20
58993;DHT22;44782;0.000;0.000;2023-06-22T02:43:54;25.40;56.30
58993;DHT22;44782;0.000;0.000;2023-06-22T02:46:10;25.30;56.10
58993;DHT22;44782;0.000;0.000;2023-06-22T02:48:25;25.30;56.20
58993;DHT22;44782;0.000;0.000;2023-06-22T02:50:41;25.30;56.20
58993;DHT22;44782;0.000;0.000;2023-06-22T02:52:57;25.30;56.10
58993;DHT22;44782;0.000;0.000;2023-06-22T02:55:13;25.30;56.10
58993;DHT22;44782;0.000;0.000;2023-06-22T02:57:29;25.30;56.10
58993;DHT22;44782;0.000;0.000;2023-06-22T02:59:45;25.30;56.10
58993;DHT22;44782;0.000;0.000;2023-06-22T03:02:01;25.30;56.20
58993;DHT22;44782;0.000;0.000;2023-06-22T03:04:18;25.30;56.20
58993;DHT22;44782;0.000;0.000;2023-06-22T03:06:34;25.30;56.10
58993;DHT22;44782;0.000;0.000;2023-06-22T03:08:50;25.30;56.10
58993;DHT22;44782;0.000;0.000;2023-06-22T03:11:06;25.30;56.10
58993;DHT22;44782;0.000;0.000;2023-06-22T03:13:23;25.30;56.10
58993;DHT22;44782;0.000;0.000;2023-06-22T03:15:39;25.30;56.10
58993;DHT22;44782;0.000;0.000;2023-06-22T03:17:55;25.30;56.10
58993;DHT22;44782;0.000;0.000;2023-06-22T03:20:10;25.30;56.10
58993;DHT22;44782;0.000;0.000;2023-06-22T03:22:29;25.30;56.10
58993;DHT22;44782;0.000;0.000;2023-06-22T03:24:44;25.30;56.10
58993;DHT22;44782;0.000;0.000;2023-06-22T03:27:00;25.30;56.10
58993;DHT22;44782;0.000;0.000;2023-06-22T03:29:16;25.30;56.00
58993;DHT22;44782;0.000;0.000;2023-06-22T03:31:32;25.30;56.00
58993;DHT22;44782;0.000;0.000;2023-06-22T03:33:48;25.30;56.10
58993;DHT22;44782;0.000;0.000;2023-06-22T03:36:04;25.20;56.00
58993;DHT22;44782;0.000;0.000;2023-06-22T03:38:20;25.20;56.00
58993;DHT22;44782;0.000;0.000;2023-06-22T03:40:38;25.20;56.00
58993;DHT22;44782;0.000;0.000;2023-06-22T03:42:54;25.20;55.90
58993;DHT22;44782;0.000;0.000;2023-06-22T03:45:10;25.20;56.00
58993;DHT22;44782;0.000;0.000;2023-06-22T03:47:26;25.20;56.00
58993;DHT22;44782;0.000;0.000;2023-06-22T03:49:42;25.30;56.00
58993;DHT22;44782;0.000;0.000;2023-06-22T03:51:57;25.20;56.00
58993;DHT22;44782;0.000;0.000;2023-06-22T03:54:13;25.20;56.00
58993;DHT22;44782;0.000;0.000;2023-06-22T03:56:29;25.20;56.00
58993;DHT22;44782;0.000;0.000;2023-06-22T03:58:44;25.20;56.00
58993;DHT22;44782;0.000;0.000;2023-06-22T04:01:00;25.20;56.00
58993;DHT22;44782;0.000;0.000;2023-06-22T04:03:16;25.20;56.00
58993;DHT22;44782;0.000;0.000;2023-06-22T04:05:33;25.20;56.00
58993;DHT22;44782;0.000;0.000;2023-06-22T04:07:49;25.20;56.00
58993;DHT22;44782;0.000;0.000;2023-06-22T04:10:07;25.20;56.00
58993;DHT22;44782;0.000;0.000;2023-06-22T04:12:23;25.20;56.00
58993;DHT22;44782;0.000;0.000;2023-06-22T04:14:39;25.20;56.00
58993;DHT22;44782;0.000;0.000;2023-06-22T04:16:54;25.20;56.00
58993;DHT22;44782;0.000;0.000;2023-06-22T04:19:10;25.20;56.00
58993;DHT22;44782;0.000;0.000;2023-06-22T04:21:31;25.20;56.00
58993;DHT22;44782;0.000;0.000;2023-06-22T04:23:47;25.20;56.00
58993;DHT22;44782;0.000;0.000;2023-06-22T04:26:03;25.20;56.00
58993;DHT22;44782;0.000;0.000;2023-06-22T04:28:18;25.20;55.90
58993;DHT22;44782;0.000;0.000;2023-06-22T04:30:34;25.20;56.00
58993;DHT22;44782;0.000;0.000;2023-06-22T04:32:50;25.20;56.00
58993;DHT22;44782;0.000;0.000;2023-06-22T04:35:12;25.20;55.90
58993;DHT22;44782;0.000;0.000;2023-06-22T04:37:28;25.20;56.00
58993;DHT22;44782;0.000;0.000;2023-06-22T04:39:44;25.20;56.00
58993;DHT22;44782;0.000;0.000;2023-06-22T04:42:00;25.10;55.90
58993;DHT22;44782;0.000;0.000;2023-06-22T04:44:19;25.20;55.90
58993;DHT22;44782;0.000;0.000;2023-06-22T04:46:41;25.20;55.90
58993;DHT22;44782;0.000;0.000;2023-06-22T04:48:57;25.10;55.90
58993;DHT22;44782;0.000;0.000;2023-06-22T04:51:12;25.10;55.90
58993;DHT22;44782;0.000;0.000;2023-06-22T04:53:28;25.10;55.90
58993;DHT22;44782;0.000;0.000;2023-06-22T04:55:45;25.10;55.90
58993;DHT22;44782;0.000;0.000;2023-06-22T04:58:01;25.10;55.90
58993;DHT22;44782;0.000;0.000;2023-06-22T05:00:20;25.10;55.90
58993;DHT22;44782;0.000;0.000;2023-06-22T05:02:39;25.10;55.90
58993;DHT22;44782;0.000;0.000;2023-06-22T05:04:55;25.10;55.90
58993;DHT22;44782;0.000;0.000;2023-06-22T05:07:12;25.10;55.90
58993;DHT22;44782;0.000;0.000;2023-06-22T05:09:28;25.10;55.90
58993;DHT22;44782;0.000;0.000;2023-06-22T05:11:45;25.10;55.80
58993;DHT22;44782;0.000;0.000;2023-06-22T05:14:00;25.10;55.90
58993;DHT22;44782;0.000;0.000;2023-06-22T05:16:16;25.10;55.80
58993;DHT22;44782;0.000;0.000;2023-06-22T05:18:32;25.10;55.80
58993;DHT22;44782;0.000;0.000;2023-06-22T05:20:47;25.10;55.90
58993;DHT22;44782;0.000;0.000;2023-06-22T05:23:03;25.10;55.90
58993;DHT22;44782;0.000;0.000;2023-06-22T05:25:19;25.10;55.90
58993;DHT22;44782;0.000;0.000;2023-06-22T05:27:38;25.10;55.90
58993;DHT22;44782;0.000;0.000;2023-06-22T05:29:55;25.10;55.90
58993;DHT22;44782;0.000;0.000;2023-06-22T05:32:10;25.10;55.90
58993;DHT22;44782;0.000;0.000;2023-06-22T05:34:26;25.10;55.90
58993;DHT22;44782;0.000;0.000;2023-06-22T05:36:42;25.10;55.90
58993;DHT22;44782;0.000;0.000;2023-06-22T05:38:59;25.10;55.80
58993;DHT22;44782;0.000;0.000;2023-06-22T05:41:26;25.10;55.80
58993;DHT22;44782;0.000;0.000;2023-06-22T05:43:42;25.10;55.80
58993;DHT22;44782;0.000;0.000;2023-06-22T05:45:58;25.00;55.80
58993;DHT22;44782;0.000;0.000;2023-06-22T05:48:14;25.00;55.70
58993;DHT22;44782;0.000;0.000;2023-06-22T05:50:29;25.00;55.80
58993;DHT22;44782;0.000;0.000;2023-06-22T05:52:45;25.00;55.70
58993;DHT22;44782;0.000;0.000;2023-06-22T05:55:02;25.00;55.80
58993;DHT22;44782;0.000;0.000;2023-06-22T05:57:17;25.00;55.80
58993;DHT22;44782;0.000;0.000;2023-06-22T05:59:33;25.00;55.80
58993;DHT22;44782;0.000;0.000;2023-06-22T06:01:49;25.00;55.80
58993;DHT22;44782;0.000;0.000;2023-06-22T06:04:06;25.00;55.80
58993;DHT22;44782;0.000;0.000;2023-06-22T06:06:24;25.00;55.80
58993;DHT22;44782;0.000;0.000;2023-06-22T06:08:43;25.00;55.80
58993;DHT22;44782;0.000;0.000;2023-06-22T06:10:59;25.00;55.80
58993;DHT22;44782;0.000;0.000;2023-06-22T06:13:15;25.00;55.80
58993;DHT22;44782;0.000;0.000;2023-06-22T06:15:31;25.00;55.80
58993;DHT22;44782;0.000;0.000;2023-06-22T06:17:51;25.00;55.80
58993;DHT22;44782;0.000;0.000;2023-06-22T06:20:08;25.00;55.70
58993;DHT22;44782;0.000;0.000;2023-06-22T06:22:23;25.00;55.80
58993;DHT22;44782;0.000;0.000;2023-06-22T06:24:39;25.00;55.80
58993;DHT22;44782;0.000;0.000;2023-06-22T06:26:55;25.00;55.80
58993;DHT22;44782;0.000;0.000;2023-06-22T06:29:10;25.00;55.80
58993;DHT22;44782;0.000;0.000;2023-06-22T06:31:26;25.00;55.80
58993;DHT22;44782;0.000;0.000;2023-06-22T06:33:45;25.00;55.80
58993;DHT22;44782;0.000;0.000;2023-06-22T06:36:01;25.00;55.80
58993;DHT22;44782;0.000;0.000;2023-06-22T06:38:18;25.00;55.80
58993;DHT22;44782;0.000;0.000;2023-06-22T06:40:34;25.00;55.80
58993;DHT22;44782;0.000;0.000;2023-06-22T06:42:49;25.00;55.80
58993;DHT22;44782;0.000;0.000;2023-06-22T06:45:08;25.00;55.80
58993;DHT22;44782;0.000;0.000;2023-06-22T06:47:24;25.00;55.80
58993;DHT22;44782;0.000;0.000;2023-06-22T06:49:40;24.90;55.80
58993;DHT22;44782;0.000;0.000;2023-06-22T06:51:55;24.90;55.80
58993;DHT22;44782;0.000;0.000;2023-06-22T06:54:11;24.90;55.80
58993;DHT22;44782;0.000;0.000;2023-06-22T06:56:27;24.90;55.80
58993;DHT22;44782;0.000;0.000;2023-06-22T06:58:46;25.00;55.80
58993;DHT22;44782;0.000;0.000;2023-06-22T07:01:01;25.00;55.80
58993;DHT22;44782;0.000;0.000;2023-06-22T07:03:18;25.00;55.80
58993;DHT22;44782;0.000;0.000;2023-06-22T07:05:33;24.90;55.80
58993;DHT22;44782;0.000;0.000;2023-06-22T07:07:49;24.90;55.80
58993;DHT22;44782;0.000;0.000;2023-06-22T07:10:05;24.90;55.80
58993;DHT22;44782;0.000;0.000;2023-06-22T07:12:21;24.90;55.80
58993;DHT22;44782;0.000;0.000;2023-06-22T07:14:37;24.90;55.80
58993;DHT22;44782;0.000;0.000;2023-06-22T07:16:53;24.90;55.80
58993;DHT22;44782;0.000;0.000;2023-06-22T07:19:11;24.90;55.80
58993;DHT22;44782;0.000;0.000;2023-06-22T07:21:28;24.90;55.80
58993;DHT22;44782;0.000;0.000;2023-06-22T07:23:43;24.90;55.90
58993;DHT22;44782;0.000;0.000;2023-06-22T07:25:59;24.90;55.80
58993;DHT22;44782;0.000;0.000;2023-06-22T07:28:18;24.90;55.90
58993;DHT22;44782;0.000;0.000;2023-06-22T07:30:34;24.90;55.90
58993;DHT22;44782;0.000;0.000;2023-06-22T07:32:50;24.90;55.80
58993;DHT22;44782;0.000;0.000;2023-06-22T07:35:06;24.90;55.80
58993;DHT22;44782;0.000;0.000;2023-06-22T07:37:22;24.90;55.90
58993;DHT22;44782;0.000;0.000;2023-06-22T07:39:38;24.90;55.80
58993;DHT22;44782;0.000;0.000;2023-06-22T07:41:53;24.80;55.80
58993;DHT22;44782;0.000;0.000;2023-06-22T07:44:09;24.90;55.80
58993;DHT22;44782;0.000;0.000;2023-06-22T07:46:25;24.80;55.80
58993;DHT22;44782;0.000;0.000;2023-06-22T07:48:40;24.90;55.90
58993;DHT22;44782;0.000;0.000;2023-06-22T07:50:57;24.80;55.80
58993;DHT22;44782;0.000;0.000;2023-06-22T07:53:13;24.90;55.80
58993;DHT22;44782;0.000;0.000;2023-06-22T07:55:29;24.80;56.50
58993;DHT22;44782;0.000;0.000;2023-06-22T07:57:48;24.80;55.90
58993;DHT22;44782;0.000;0.000;2023-06-22T08:00:05;24.80;55.90
58993;DHT22;44782;0.000;0.000;2023-06-22T08:02:31;24.80;55.80
58993;DHT22;44782;0.000;0.000;2023-06-22T08:04:50;24.80;55.90
58993;DHT22;44782;0.000;0.000;2023-06-22T08:07:08;24.80;55.90
58993;DHT22;44782;0.000;0.000;2023-06-22T08:09:23;24.80;55.80
58993;DHT22;44782;0.000;0.000;2023-06-22T08:11:39;24.80;55.90
58993;DHT22;44782;0.000;0.000;2023-06-22T08:13:55;24.80;55.90
58993;DHT22;44782;0.000;0.000;2023-06-22T08:16:11;24.80;56.00
58993;DHT22;44782;0.000;0.000;2023-06-22T08:18:27;24.80;55.90
58993;DHT22;44782;0.000;0.000;2023-06-22T08:20:43;24.80;55.90
58993;DHT22;44782;0.000;0.000;2023-06-22T08:22:59;24.80;55.90
58993;DHT22;44782;0.000;0.000;2023-06-22T08:25:20;24.80;56.00
58993;DHT22;44782;0.000;0.000;2023-06-22T08:27:36;24.80;56.00
58993;DHT22;44782;0.000;0.000;2023-06-22T08:29:52;24.80;55.90
58993;DHT22;44782;0.000;0.000;2023-06-22T08:32:13;24.80;55.90
58993;DHT22;44782;0.000;0.000;2023-06-22T08:34:29;24.80;55.90
58993;DHT22;44782;0.000;0.000;2023-06-22T08:36:44;24.80;55.90
58993;DHT22;44782;0.000;0.000;2023-06-22T08:39:04;24.70;55.90
58993;DHT22;44782;0.000;0.000;2023-06-22T08:41:19;24.80;56.00
58993;DHT22;44782;0.000;0.000;2023-06-22T08:43:35;24.80;56.00
58993;DHT22;44782;0.000;0.000;2023-06-22T08:45:51;24.80;56.00
58993;DHT22;44782;0.000;0.000;2023-06-22T08:48:07;24.80;56.00
58993;DHT22;44782;0.000;0.000;2023-06-22T08:50:22;24.70;55.90
58993;DHT22;44782;0.000;0.000;2023-06-22T08:52:39;24.70;55.90
58993;DHT22;44782;0.000;0.000;2023-06-22T08:54:57;24.70;55.90
58993;DHT22;44782;0.000;0.000;2023-06-22T08:57:13;24.70;55.90
58993;DHT22;44782;0.000;0.000;2023-06-22T08:59:29;24.70;55.90
58993;DHT22;44782;0.000;0.000;2023-06-22T09:01:45;24.70;55.90
58993;DHT22;44782;0.000;0.000;2023-06-22T09:04:04;24.70;55.90
58993;DHT22;44782;0.000;0.000;2023-06-22T09:06:21;24.70;55.90
58993;DHT22;44782;0.000;0.000;2023-06-22T09:08:37;24.70;55.90
58993;DHT22;44782;0.000;0.000;2023-06-22T09:10:52;24.70;55.90
58993;DHT22;44782;0.000;0.000;2023-06-22T09:13:08;24.70;55.90
58993;DHT22;44782;0.000;0.000;2023-06-22T09:15:24;24.70;55.90
58993;DHT22;44782;0.000;0.000;2023-06-22T09:17:40;24.70;55.90
58993;DHT22;44782;0.000;0.000;2023-06-22T09:19:56;24.70;56.00
58993;DHT22;44782;0.000;0.000;2023-06-22T09:22:12;24.70;56.00
58993;DHT22;44782;0.000;0.000;2023-06-22T09:24:28;24.70;55.90
58993;DHT22;44782;0.000;0.000;2023-06-22T09:26:43;24.70;55.90
58993;DHT22;44782;0.000;0.000;2023-06-22T09:28:59;24.70;56.60
58993;DHT22;44782;0.000;0.000;2023-06-22T09:31:15;24.70;56.00
58993;DHT22;44782;0.000;0.000;2023-06-22T09:33:31;24.70;56.00
58993;DHT22;44782;0.000;0.000;2023-06-22T09:35:47;24.70;56.00
58993;DHT22;44782;0.000;0.000;2023-06-22T09:38:10;24.70;56.00
58993;DHT22;44782;0.000;0.000;2023-06-22T09:40:26;24.70;55.90
58993;DHT22;44782;0.000;0.000;2023-06-22T09:42:41;24.70;56.00
58993;DHT22;44782;0.000;0.000;2023-06-22T09:44:57;24.70;56.00
58993;DHT22;44782;0.000;0.000;2023-06-22T09:47:13;24.70;56.00
58993;DHT22;44782;0.000;0.000;2023-06-22T09:49:28;24.70;56.00
58993;DHT22;44782;0.000;0.000;2023-06-22T09:51:44;24.70;56.00
58993;DHT22;44782;0.000;0.000;2023-06-22T09:54:00;24.70;56.00
58993;DHT22;44782;0.000;0.000;2023-06-22T09:56:15;24.70;56.00
58993;DHT22;44782;0.000;0.000;2023-06-22T09:58:31;24.70;55.90
58993;DHT22;44782;0.000;0.000;2023-06-22T10:00:47;24.70;55.90
58993;DHT22;44782;0.000;0.000;2023-06-22T10:03:02;24.70;56.00
58993;DHT22;44782;0.000;0.000;2023-06-22T10:05:18;24.70;55.90
58993;DHT22;44782;0.000;0.000;2023-06-22T10:07:34;24.70;56.00
58993;DHT22;44782;0.000;0.000;2023-06-22T10:09:50;24.70;55.90
58993;DHT22;44782;0.000;0.000;2023-06-22T10:12:06;24.70;55.90
58993;DHT22;44782;0.000;0.000;2023-06-22T10:14:22;24.70;55.90
58993;DHT22;44782;0.000;0.000;2023-06-22T10:16:37;24.70;56.00
58993;DHT22;44782;0.000;0.000;2023-06-22T10:18:53;24.70;55.90
58993;DHT22;44782;0.000;0.000;2023-06-22T10:21:09;24.70;55.90
58993;DHT22;44782;0.000;0.000;2023-06-22T10:23:24;24.70;55.90
58993;DHT22;44782;0.000;0.000;2023-06-22T10:25:40;24.70;55.90
58993;DHT22;44782;0.000;0.000;2023-06-22T10:27:56;24.70;55.80
58993;DHT22;44782;0.000;0.000;2023-06-22T10:30:12;24.70;55.90
58993;DHT22;44782;0.000;0.000;2023-06-22T10:32:28;24.70;55.80
58993;DHT22;44782;0.000;0.000;2023-06-22T10:34:44;24.70;55.80
58993;DHT22;44782;0.000;0.000;2023-06-22T10:36:59;24.70;55.90
58993;DHT22;44782;0.000;0.000;2023-06-22T10:39:15;24.70;55.90
58993;DHT22;44782;0.000;0.000;2023-06-22T10:41:31;24.70;55.90
58993;DHT22;44782;0.000;0.000;2023-06-22T10:43:46;24.70;55.80
58993;DHT22;44782;0.000;0.000;2023-06-22T10:46:02;24.70;55.80
58993;DHT22;44782;0.000;0.000;2023-06-22T10:48:18;24.70;55.80
58993;DHT22;44782;0.000;0.000;2023-06-22T10:50:33;24.70;55.80
58993;DHT22;44782;0.000;0.000;2023-06-22T10:52:49;24.70;55.80
58993;DHT22;44782;0.000;0.000;2023-06-22T10:55:08;24.70;55.70
58993;DHT22;44782;0.000;0.000;2023-06-22T10:57:24;24.70;55.70
58993;DHT22;44782;0.000;0.000;2023-06-22T10:59:40;24.80;55.80
58993;DHT22;44782;0.000;0.000;2023-06-22T11:01:56;24.80;55.70
58993;DHT22;44782;0.000;0.000;2023-06-22T11:04:13;24.80;55.70
58993;DHT22;44782;0.000;0.000;2023-06-22T11:06:28;24.80;55.70
58993;DHT22;44782;0.000;0.000;2023-06-22T11:08:45;24.80;55.70
58993;DHT22;44782;0.000;0.000;2023-06-22T11:11:01;24.80;55.70
58993;DHT22;44782;0.000;0.000;2023-06-22T11:13:16;24.90;55.70
58993;DHT22;44782;0.000;0.000;2023-06-22T11:15:32;24.80;55.60
58993;DHT22;44782;0.000;0.000;2023-06-22T11:17:47;24.80;55.60
58993;DHT22;44782;0.000;0.000;2023-06-22T11:20:04;24.80;55.60
58993;DHT22;44782;0.000;0.000;2023-06-22T11:22:26;24.80;55.60
58993;DHT22;44782;0.000;0.000;2023-06-22T11:24:42;24.80;55.70
58993;DHT22;44782;0.000;0.000;2023-06-22T11:26:58;24.90;55.70
58993;DHT22;44782;0.000;0.000;2023-06-22T11:29:13;24.90;55.70
58993;DHT22;44782;0.000;0.000;2023-06-22T11:31:29;24.90;55.60
58993;DHT22;44782;0.000;0.000;2023-06-22T11:33:45;24.90;55.70
58993;DHT22;44782;0.000;0.000;2023-06-22T11:36:04;24.90;55.60
58993;DHT22;44782;0.000;0.000;2023-06-22T11:38:20;24.90;55.70
58993;DHT22;44782;0.000;0.000;2023-06-22T11:40:36;24.90;55.60
58993;DHT22;44782;0.000;0.000;2023-06-22T11:42:51;24.90;55.60
58993;DHT22;44782;0.000;0.000;2023-06-22T11:45:07;24.90;55.60
58993;DHT22;44782;0.000;0.000;2023-06-22T11:47:23;25.00;55.60
58993;DHT22;44782;0.000;0.000;2023-06-22T11:49:39;24.90;55.50
58993;DHT22;44782;0.000;0.000;2023-06-22T11:51:55;25.00;55.50
58993;DHT22;44782;0.000;0.000;2023-06-22T11:54:11;25.00;55.50
58993;DHT22;44782;0.000;0.000;2023-06-22T11:56:26;24.90;55.50
58993;DHT22;44782;0.000;0.000;2023-06-22T11:58:43;24.90;55.50
58993;DHT22;44782;0.000;0.000;2023-06-22T12:00:58;24.90;55.50
58993;DHT22;44782;0.000;0.000;2023-06-22T12:03:14;24.90;55.50
58993;DHT22;44782;0.000;0.000;2023-06-22T12:05:30;25.00;55.60
58993;DHT22;44782;0.000;0.000;2023-06-22T12:07:45;24.90;55.50
58993;DHT22;44782;0.000;0.000;2023-06-22T12:10:02;25.00;55.50
58993;DHT22;44782;0.000;0.000;2023-06-22T12:12:17;25.00;55.60
58993;DHT22;44782;0.000;0.000;2023-06-22T12:14:33;24.90;55.40
58993;DHT22;44782;0.000;0.000;2023-06-22T12:16:49;24.90;55.40
58993;DHT22;44782;0.000;0.000;2023-06-22T12:19:07;24.90;55.50
58993;DHT22;44782;0.000;0.000;2023-06-22T12:21:23;24.90;55.40
58993;DHT22;44782;0.000;0.000;2023-06-22T12:23:39;24.90;55.50
58993;DHT22;44782;0.000;0.000;2023-06-22T12:25:54;25.00;55.50
58993;DHT22;44782;0.000;0.000;2023-06-22T12:28:10;25.00;55.50
58993;DHT22;44782;0.000;0.000;2023-06-22T12:30:26;25.00;55.50
58993;DHT22;44782;0.000;0.000;2023-06-22T12:32:41;24.90;55.50
58993;DHT22;44782;0.000;0.000;2023-06-22T12:34:57;25.00;55.50
58993;DHT22;44782;0.000;0.000;2023-06-22T12:37:13;25.00;55.50
58993;DHT22;44782;0.000;0.000;2023-06-22T12:39:28;25.00;55.50
58993;DHT22;44782;0.000;0.000;2023-06-22T12:41:44;25.00;55.50
58993;DHT22;44782;0.000;0.000;2023-06-22T12:44:00;25.00;55.50
58993;DHT22;44782;0.000;0.000;2023-06-22T12:46:15;25.00;55.50
58993;DHT22;44782;0.000;0.000;2023-06-22T12:48:31;25.00;55.50
58993;DHT22;44782;0.000;0.000;2023-06-22T12:50:46;25.00;55.50
58993;DHT22;44782;0.000;0.000;2023-06-22T12:53:03;25.00;55.50
58993;DHT22;44782;0.000;0.000;2023-06-22T12:55:19;25.00;55.50
58993;DHT22;44782;0.000;0.000;2023-06-22T12:57:35;25.00;55.50
58993;DHT22;44782;0.000;0.000;2023-06-22T12:59:54;25.00;55.50
58993;DHT22;44782;0.000;0.000;2023-06-22T13:02:09;25.00;55.50
58993;DHT22;44782;0.000;0.000;2023-06-22T13:04:25;25.00;55.50
58993;DHT22;44782;0.000;0.000;2023-06-22T13:06:41;25.00;55.50
58993;DHT22;44782;0.000;0.000;2023-06-22T13:08:57;25.00;55.40
58993;DHT22;44782;0.000;0.000;2023-06-22T13:11:13;25.00;55.40
58993;DHT22;44782;0.000;0.000;2023-06-22T13:13:28;25.00;55.50
58993;DHT22;44782;0.000;0.000;2023-06-22T13:15:44;25.00;55.50
58993;DHT22;44782;0.000;0.000;2023-06-22T13:18:00;25.00;55.50
58993;DHT22;44782;0.000;0.000;2023-06-22T13:20:15;25.00;55.50
58993;DHT22;44782;0.000;0.000;2023-06-22T13:22:33;25.00;55.50
58993;DHT22;44782;0.000;0.000;2023-06-22T13:24:55;25.00;55.50
58993;DHT22;44782;0.000;0.000;2023-06-22T13:27:11;25.00;55.50
58993;DHT22;44782;0.000;0.000;2023-06-22T13:29:27;25.00;55.50
58993;DHT22;44782;0.000;0.000;2023-06-22T13:31:42;24.90;55.40
58993;DHT22;44782;0.000;0.000;2023-06-22T13:33:58;25.00;55.50
58993;DHT22;44782;0.000;0.000;2023-06-22T13:36:14;25.00;55.50
58993;DHT22;44782;0.000;0.000;2023-06-22T13:38:29;25.00;55.50
58993;DHT22;44782;0.000;0.000;2023-06-22T13:40:47;25.00;55.50
58993;DHT22;44782;0.000;0.000;2023-06-22T13:43:03;25.00;55.60
58993;DHT22;44782;0.000;0.000;2023-06-22T13:45:19;25.00;55.50
58993;DHT22;44782;0.000;0.000;2023-06-22T13:47:35;24.90;55.50
58993;DHT22;44782;0.000;0.000;2023-06-22T13:49:51;24.90;55.40
58993;DHT22;44782;0.000;0.000;2023-06-22T13:52:07;25.00;55.50
58993;DHT22;44782;0.000;0.000;2023-06-22T13:54:25;25.00;55.50
58993;DHT22;44782;0.000;0.000;2023-06-22T13:56:41;25.00;55.50
58993;DHT22;44782;0.000;0.000;2023-06-22T13:58:56;25.00;55.40
58993;DHT22;44782;0.000;0.000;2023-06-22T14:01:12;25.00;55.40
58993;DHT22;44782;0.000;0.000;2023-06-22T14:03:28;25.00;55.40
58993;DHT22;44782;0.000;0.000;2023-06-22T14:05:44;25.00;55.40
58993;DHT22;44782;0.000;0.000;2023-06-22T14:07:59;25.00;56.10
58993;DHT22;44782;0.000;0.000;2023-06-22T14:10:15;25.00;55.40
58993;DHT22;44782;0.000;0.000;2023-06-22T14:12:31;25.00;55.40
58993;DHT22;44782;0.000;0.000;2023-06-22T14:14:46;25.00;55.40
58993;DHT22;44782;0.000;0.000;2023-06-22T14:17:03;25.00;55.40
58993;DHT22;44782;0.000;0.000;2023-06-22T14:19:19;25.00;55.40
58993;DHT22;44782;0.000;0.000;2023-06-22T14:21:34;25.00;55.40
58993;DHT22;44782;0.000;0.000;2023-06-22T14:23:50;25.00;55.40
58993;DHT22;44782;0.000;0.000;2023-06-22T14:26:08;25.00;55.40
58993;DHT22;44782;0.000;0.000;2023-06-22T14:28:24;25.00;55.30
58993;DHT22;44782;0.000;0.000;2023-06-22T14:30:39;25.00;55.40
58993;DHT22;44782;0.000;0.000;2023-06-22T14:32:55;25.00;55.40
58993;DHT22;44782;0.000;0.000;2023-06-22T14:35:11;25.00;55.40
58993;DHT22;44782;0.000;0.000;2023-06-22T14:37:26;25.00;56.00
58993;DHT22;44782;0.000;0.000;2023-06-22T14:39:42;25.00;55.40
58993;DHT22;44782;0.000;0.000;2023-06-22T14:41:58;25.00;55.30
58993;DHT22;44782;0.000;0.000;2023-06-22T14:44:13;25.00;55.30